Time;durP1;ratioP1;P1;durP2;ratioP2;P2;SDS_P1;SDS_P2;PMS_P1;PMS_P2;Temp;Humidity;BMP_temperature;BMP_pressure;BME280_temperature;BME280_humidity;BME280_pressure;Samples;Min_cycle;Max_cycle;Signal;HPM_P1;HPM_P2
2021/06/20 00:01:59;;;;;;;13.85;9.40;;;;;;;27.16;35.94;100874.56;5055864;28;20028;-75
2021/06/20 00:04:24;;;;;;;9.95;8.80;;;;;;;27.18;35.90;100882.53;5055625;28;20028;-74
2021/06/20 00:06:51;;;;;;;11.13;9.50;;;;;;;27.12;36.09;100873.81;5055540;28;20441;-74
2021/06/20 00:09:18;;;;;;;12.18;9.98;;;;;;;27.04;36.47;100870.31;5055496;28;20025;-74
2021/06/20 00:11:47;;;;;;;10.98;8.75;;;;;;;27.10;36.14;100879.84;5055432;28;20025;-76
2021/06/20 00:14:13;;;;;;;11.52;10.32;;;;;;;27.06;36.29;100876.31;5055313;28;20035;-74
2021/06/20 00:16:39;;;;;;;11.95;10.45;;;;;;;27.08;36.37;100876.69;5037391;28;20123;-73
2021/06/20 00:19:06;;;;;;;13.10;10.43;;;;;;;27.08;36.33;100867.47;5055359;28;20386;-74
2021/06/20 00:21:32;;;;;;;14.35;10.48;;;;;;;27.12;36.05;100868.19;5047886;28;20056;-75
2021/06/20 00:23:58;;;;;;;11.80;10.68;;;;;;;27.15;36.16;100877.78;5055235;28;20032;-73
2021/06/20 00:26:24;;;;;;;12.85;11.05;;;;;;;27.15;36.41;100875.00;5055251;28;20028;-73
2021/06/20 00:28:50;;;;;;;12.13;10.85;;;;;;;27.16;36.46;100863.34;5055182;28;20368;-74
2021/06/20 00:31:16;;;;;;;11.10;10.10;;;;;;;27.18;36.20;100874.13;5053948;28;20036;-74
2021/06/20 00:33:42;;;;;;;11.80;10.30;;;;;;;27.17;36.27;100867.72;5055101;28;20029;-74
2021/06/20 00:36:09;;;;;;;13.43;10.05;;;;;;;27.16;36.41;100868.16;5053657;28;20033;-73
2021/06/20 00:38:35;;;;;;;12.05;10.02;;;;;;;27.22;36.15;100872.09;5054940;28;20184;-73
2021/06/20 00:41:02;;;;;;;13.25;10.45;;;;;;;27.20;36.45;100860.47;5054742;28;20483;-73
2021/06/20 00:43:27;;;;;;;14.95;9.48;;;;;;;27.12;36.63;100861.78;5054900;28;20082;-73
2021/06/20 00:45:53;;;;;;;13.57;10.15;;;;;;;27.21;36.29;100854.47;5054795;28;20112;-73
2021/06/20 00:48:19;;;;;;;12.20;9.73;;;;;;;27.24;36.26;100853.59;5055054;28;20029;-73
2021/06/20 00:50:45;;;;;;;10.93;9.82;;;;;;;27.30;36.23;100851.91;5054975;28;20467;-73
2021/06/20 00:53:11;;;;;;;12.35;10.32;;;;;;;27.28;36.18;100848.75;5054738;28;20035;-74
2021/06/20 00:55:37;;;;;;;12.15;10.77;;;;;;;27.27;36.17;100849.13;5054598;28;20083;-73
2021/06/20 00:58:04;;;;;;;11.82;10.57;;;;;;;27.24;36.19;100848.00;5054613;28;20491;-73
2021/06/20 01:00:33;;;;;;;13.40;10.18;;;;;;;27.24;36.22;100848.00;5054583;28;20395;-74
2021/06/20 01:02:58;;;;;;;11.95;10.38;;;;;;;27.20;36.27;100846.44;5054503;28;20063;-74
2021/06/20 01:05:24;;;;;;;12.90;10.80;;;;;;;27.18;36.25;100837.66;5054504;28;20060;-74
2021/06/20 01:07:54;;;;;;;13.00;10.65;;;;;;;27.11;36.63;100832.97;5054347;28;20044;-75
2021/06/20 01:10:22;;;;;;;12.98;11.63;;;;;;;27.04;36.51;100839.47;5054427;28;20025;-74
2021/06/20 01:12:49;;;;;;;12.98;11.38;;;;;;;27.01;36.64;100829.09;5054327;28;20025;-73
2021/06/20 01:15:15;;;;;;;14.60;13.10;;;;;;;27.00;36.77;100827.50;5054247;28;20070;-74
2021/06/20 01:17:42;;;;;;;17.38;13.35;;;;;;;26.90;36.84;100828.44;5054173;28;20100;-73
2021/06/20 01:20:11;;;;;;;13.75;12.27;;;;;;;26.84;36.83;100835.75;5052787;28;20067;-73
2021/06/20 01:22:38;;;;;;;14.38;13.07;;;;;;;26.88;36.82;100828.06;5053945;28;20025;-73
2021/06/20 01:25:07;;;;;;;15.43;13.75;;;;;;;26.82;37.06;100826.94;5054005;28;20434;-73
2021/06/20 01:27:50;;;;;;;17.23;13.63;;;;;;;26.78;37.04;100820.63;5056954;28;20036;-74
2021/06/20 01:30:21;;;;;;;15.63;14.13;;;;;;;26.75;37.21;100813.84;5053876;28;20051;-74
2021/06/20 01:32:47;;;;;;;15.57;13.98;;;;;;;26.85;37.01;100816.91;5053863;28;20079;-73
2021/06/20 01:35:16;;;;;;;15.65;14.13;;;;;;;26.77;37.37;100813.44;5053824;28;20029;-74
2021/06/20 01:37:42;;;;;;;15.85;14.32;;;;;;;26.79;37.25;100806.16;5053781;28;20033;-74
2021/06/20 01:40:11;;;;;;;16.17;13.95;;;;;;;26.77;37.22;100813.44;5054109;28;20112;-73
2021/06/20 01:42:38;;;;;;;20.00;14.73;;;;;;;26.69;37.41;100807.13;5053649;28;20025;-74
2021/06/20 01:45:05;;;;;;;21.10;13.88;;;;;;;26.77;37.18;100802.22;5053732;28;20091;-73
2021/06/20 01:47:31;;;;;;;15.38;13.65;;;;;;;26.77;36.96;100800.19;5053700;28;20124;-74
2021/06/20 01:49:58;;;;;;;17.90;14.27;;;;;;;26.74;37.22;100797.44;5053526;28;20471;-74
2021/06/20 01:52:26;;;;;;;16.23;13.82;;;;;;;26.69;37.08;100795.91;5052922;28;20032;-74
2021/06/20 01:54:53;;;;;;;16.55;13.82;;;;;;;26.68;37.23;100799.16;5053043;28;20037;-74
2021/06/20 01:57:25;;;;;;;16.60;12.98;;;;;;;26.60;37.38;100790.03;5053443;28;20068;-74
2021/06/20 01:59:52;;;;;;;17.15;15.45;;;;;;;26.67;37.06;100791.94;5053462;28;20222;-74
2021/06/20 02:02:18;;;;;;;16.83;14.57;;;;;;;26.66;37.41;100790.34;5035502;28;20075;-73
2021/06/20 02:04:45;;;;;;;15.88;14.02;;;;;;;26.63;37.38;100786.38;5035085;28;20029;-74
2021/06/20 02:07:12;;;;;;;16.52;14.18;;;;;;;26.68;37.58;100793.53;5053236;28;20051;-73
2021/06/20 02:09:38;;;;;;;18.20;14.70;;;;;;;26.65;37.66;100792.34;5053480;28;20135;-73
2021/06/20 02:12:05;;;;;;;19.50;16.10;;;;;;;26.66;37.55;100791.13;5035270;28;20036;-73
2021/06/20 02:14:33;;;;;;;19.85;15.63;;;;;;;26.64;37.67;100787.97;5053102;28;20033;-73
2021/06/20 02:16:59;;;;;;;16.45;14.77;;;;;;;26.74;37.32;100783.41;5052943;28;20033;-74
2021/06/20 02:19:25;;;;;;;15.77;13.48;;;;;;;26.72;37.42;100783.06;5052998;28;20429;-74
2021/06/20 02:21:50;;;;;;;15.30;13.65;;;;;;;26.70;37.25;100775.06;5052143;28;20158;-73
2021/06/20 02:24:16;;;;;;;17.00;12.85;;;;;;;26.71;37.25;100784.28;5033980;28;20040;-74
2021/06/20 02:26:42;;;;;;;18.02;13.45;;;;;;;26.64;37.30;100787.97;5052374;28;20032;-74
2021/06/20 02:29:08;;;;;;;16.58;14.20;;;;;;;26.64;37.54;100781.56;5052090;28;20052;-73
2021/06/20 02:31:33;;;;;;;21.17;13.02;;;;;;;26.64;37.21;100784.38;5052081;28;20052;-73
2021/06/20 02:33:59;;;;;;;15.25;13.30;;;;;;;26.61;37.55;100776.81;5051901;28;20033;-74
2021/06/20 02:36:25;;;;;;;15.43;13.60;;;;;;;26.57;37.35;100771.25;5051943;28;20059;-73
2021/06/20 02:38:50;;;;;;;19.02;13.45;;;;;;;26.58;37.42;100774.84;5051988;28;20052;-74
2021/06/20 02:41:16;;;;;;;16.65;13.32;;;;;;;26.55;37.29;100777.28;5051981;28;20459;-73
2021/06/20 02:43:41;;;;;;;14.70;13.32;;;;;;;26.57;37.20;100782.47;5051905;28;20104;-74
2021/06/20 02:46:07;;;;;;;16.75;14.45;;;;;;;26.54;37.46;100777.72;5051839;28;20044;-74
2021/06/20 02:48:33;;;;;;;19.65;13.52;;;;;;;26.57;37.37;100774.06;5051856;28;20021;-73
2021/06/20 02:50:59;;;;;;;15.80;13.57;;;;;;;26.59;37.64;100768.03;5051738;28;20021;-73
2021/06/20 02:53:24;;;;;;;16.35;13.57;;;;;;;26.62;37.58;100778.41;5033917;28;20114;-74
2021/06/20 02:55:50;;;;;;;20.95;14.60;;;;;;;26.61;37.38;100772.00;5051686;28;20036;-73
2021/06/20 02:58:15;;;;;;;21.48;15.93;;;;;;;26.65;37.35;100772.75;5051700;28;20075;-73
2021/06/20 03:00:41;;;;;;;19.80;13.82;;;;;;;26.68;37.05;100771.91;5051669;28;20036;-73
2021/06/20 03:03:06;;;;;;;16.63;14.38;;;;;;;26.64;37.30;100771.16;5051660;28;20100;-74
2021/06/20 03:05:32;;;;;;;17.40;13.77;;;;;;;26.61;37.33;100758.00;5050428;28;20029;-73
2021/06/20 03:07:58;;;;;;;14.77;13.23;;;;;;;26.67;37.51;100770.31;5051614;28;20113;-74
2021/06/20 03:10:23;;;;;;;16.33;13.45;;;;;;;26.64;37.67;100771.16;5051578;28;20365;-74
2021/06/20 03:12:49;;;;;;;14.65;13.15;;;;;;;26.71;37.27;100770.25;5051506;28;20555;-74
2021/06/20 03:15:14;;;;;;;16.83;15.23;;;;;;;26.70;37.53;100771.50;5051395;28;20041;-74
2021/06/20 03:17:40;;;;;;;18.55;15.63;;;;;;;26.67;37.51;100763.91;5051733;28;20040;-75
2021/06/20 03:20:07;;;;;;;15.40;13.90;;;;;;;26.64;37.23;100775.97;5025906;28;222012;-73
2021/06/20 03:22:33;;;;;;;17.90;15.05;;;;;;;26.53;37.55;100765.72;5052323;28;20061;-74
2021/06/20 03:24:58;;;;;;;16.33;13.98;;;;;;;26.54;37.77;100775.72;5052259;28;20064;-73
2021/06/20 03:27:24;;;;;;;23.88;15.35;;;;;;;26.51;37.75;100779.34;5052298;28;20445;-74
2021/06/20 03:29:50;;;;;;;22.88;14.25;;;;;;;26.57;37.45;100768.47;5052272;28;20029;-73
2021/06/20 03:32:18;;;;;;;16.05;14.43;;;;;;;26.49;37.47;100778.97;5052174;28;20112;-74
2021/06/20 03:34:45;;;;;;;18.55;15.15;;;;;;;26.49;37.42;100776.16;5034370;28;20028;-73
2021/06/20 03:37:10;;;;;;;17.75;14.00;;;;;;;26.44;37.74;100776.63;5052114;28;20036;-74
2021/06/20 03:39:36;;;;;;;17.77;13.65;;;;;;;26.41;37.63;100773.88;5052342;28;20087;-73
2021/06/20 03:42:02;;;;;;;20.88;13.80;;;;;;;26.42;37.63;100775.47;5052132;28;20434;-74
2021/06/20 03:44:28;;;;;;;18.58;13.95;;;;;;;26.45;37.74;100783.03;5052078;28;20021;-73
2021/06/20 03:46:54;;;;;;;15.20;12.40;;;;;;;26.38;37.60;100767.09;5052065;28;20271;-73
2021/06/20 03:49:20;;;;;;;22.25;12.35;;;;;;;26.35;37.72;100779.13;5052009;28;20025;-74
2021/06/20 03:51:46;;;;;;;18.80;12.05;;;;;;;26.39;37.57;100774.31;5052016;28;20108;-74
2021/06/20 03:54:11;;;;;;;16.05;11.82;;;;;;;26.42;37.62;100776.25;5034056;28;20029;-74
2021/06/20 03:56:37;;;;;;;15.13;12.60;;;;;;;26.44;37.70;100773.81;5051846;28;20033;-73
2021/06/20 03:59:03;;;;;;;18.20;13.45;;;;;;;26.41;37.60;100782.28;5034060;28;20032;-73
2021/06/20 04:01:29;;;;;;;17.55;12.52;;;;;;;26.34;37.77;100785.16;5034084;28;20040;-74
2021/06/20 04:03:54;;;;;;;21.00;13.23;;;;;;;26.29;38.06;100794.81;5051835;28;20056;-74
2021/06/20 04:06:20;;;;;;;20.00;12.57;;;;;;;26.34;37.51;100794.34;5051775;28;20057;-74
2021/06/20 04:08:46;;;;;;;12.77;11.45;;;;;;;26.34;37.43;100788.75;5051825;28;20036;-73
2021/06/20 04:11:11;;;;;;;17.33;11.52;;;;;;;26.34;37.42;100799.94;5051807;28;20035;-74
2021/06/20 04:13:37;;;;;;;16.27;11.57;;;;;;;26.31;37.69;100798.00;5051724;28;20399;-73
2021/06/20 04:16:03;;;;;;;15.32;9.43;;;;;;;26.29;37.96;100797.59;5053060;28;20032;-73
2021/06/20 04:18:28;;;;;;;17.02;10.48;;;;;;;26.32;37.94;100805.19;5055369;28;20513;-73
2021/06/20 04:20:55;;;;;;;13.77;9.80;;;;;;;26.32;37.92;100804.41;5055111;28;20357;-73
2021/06/20 04:23:22;;;;;;;14.35;10.40;;;;;;;26.27;38.04;100802.84;5037320;28;20413;-73
2021/06/20 04:25:47;;;;;;;19.40;11.25;;;;;;;26.26;38.11;100806.84;5055489;28;20025;-74
2021/06/20 04:28:16;;;;;;;22.85;11.20;;;;;;;26.34;37.79;100807.56;5055243;28;20086;-73
2021/06/20 04:30:41;;;;;;;16.02;9.70;;;;;;;26.32;37.91;100815.59;5055176;28;20378;-74
2021/06/20 04:33:07;;;;;;;19.65;10.10;;;;;;;26.34;37.80;100818.78;5055006;28;20029;-74
2021/06/20 04:35:32;;;;;;;12.30;8.65;;;;;;;26.36;37.60;100830.34;5054927;28;20110;-74
2021/06/20 04:37:58;;;;;;;17.10;8.75;;;;;;;26.32;37.70;100827.59;5054956;28;20108;-73
2021/06/20 04:40:25;;;;;;;16.77;9.43;;;;;;;26.28;37.86;100832.44;5054869;28;20029;-73
2021/06/20 04:42:57;;;;;;;15.85;9.10;;;;;;;26.26;37.78;100835.66;5037051;28;20040;-75
2021/06/20 04:45:23;;;;;;;13.27;8.90;;;;;;;26.26;37.88;100835.66;5054842;28;20025;-73
2021/06/20 04:47:49;;;;;;;19.70;8.35;;;;;;;26.28;37.74;100833.22;5054769;28;20099;-74
2021/06/20 04:50:14;;;;;;;15.68;8.02;;;;;;;26.33;37.75;100834.00;5054647;28;20433;-73
2021/06/20 04:52:42;;;;;;;12.98;7.80;;;;;;;26.39;37.45;100835.94;5054682;28;20035;-74
2021/06/20 04:55:10;;;;;;;16.17;8.57;;;;;;;26.38;37.63;100836.34;5054557;28;20071;-74
2021/06/20 04:57:36;;;;;;;18.45;8.23;;;;;;;26.35;37.85;100837.94;5054586;28;20036;-74
2021/06/20 05:00:04;;;;;;;20.40;8.50;;;;;;;26.45;37.70;100841.84;5054513;28;20032;-73
2021/06/20 05:02:30;;;;;;;11.68;8.07;;;;;;;26.43;37.58;100839.47;5054528;28;20116;-73
2021/06/20 05:04:57;;;;;;;14.90;8.60;;;;;;;26.40;37.71;100840.31;5036555;28;20107;-73
2021/06/20 05:07:22;;;;;;;18.10;9.05;;;;;;;26.46;37.86;100844.25;5054477;28;20029;-73
2021/06/20 05:09:49;;;;;;;11.80;6.88;;;;;;;26.51;37.77;100848.59;5054392;28;20025;-74
2021/06/20 05:12:15;;;;;;;16.85;7.85;;;;;;;26.49;37.89;100848.22;5054394;28;20040;-73
2021/06/20 05:14:45;;;;;;;17.08;8.38;;;;;;;26.42;38.14;100843.50;5054244;28;20036;-73
2021/06/20 05:17:11;;;;;;;20.73;8.35;;;;;;;26.53;37.99;100844.16;5036793;28;20033;-74
2021/06/20 05:19:38;;;;;;;17.48;7.63;;;;;;;26.55;37.67;100836.13;5054260;28;20025;-73
2021/06/20 05:22:04;;;;;;;18.35;8.02;;;;;;;26.59;37.93;100840.88;5054018;28;20048;-73
2021/06/20 05:24:30;;;;;;;19.75;8.32;;;;;;;26.68;37.96;100850.38;5054079;28;20029;-73
2021/06/20 05:26:55;;;;;;;13.43;7.57;;;;;;;26.67;37.97;100840.38;5053592;28;20058;-73
2021/06/20 05:29:21;;;;;;;13.80;7.38;;;;;;;26.61;37.94;100850.47;5053808;28;20399;-74
2021/06/20 05:31:47;;;;;;;13.02;8.07;;;;;;;26.67;37.72;100845.97;5053966;28;20032;-73
2021/06/20 05:34:12;;;;;;;12.07;7.07;;;;;;;26.67;37.91;100847.97;5053932;28;20025;-73
2021/06/20 05:36:38;;;;;;;15.73;7.93;;;;;;;26.74;37.66;100853.50;5053791;28;20594;-73
2021/06/20 05:39:04;;;;;;;11.88;7.43;;;;;;;26.65;38.10;100851.22;5053868;28;20434;-73
2021/06/20 05:41:30;;;;;;;12.27;7.20;;;;;;;26.73;38.12;100847.09;5053787;28;20032;-73
2021/06/20 05:43:56;;;;;;;12.30;6.38;;;;;;;26.69;38.20;100848.38;5053744;28;20071;-73
2021/06/20 05:46:22;;;;;;;13.23;6.47;;;;;;;26.73;38.06;100854.72;5053627;28;20027;-73
2021/06/20 05:48:49;;;;;;;16.33;6.82;;;;;;;26.59;38.50;100858.50;5053620;28;20100;-73
2021/06/20 05:51:15;;;;;;;13.68;6.82;;;;;;;26.52;38.74;100862.16;5053538;28;20052;-74
2021/06/20 05:53:41;;;;;;;16.13;6.70;;;;;;;26.41;38.76;100861.53;5053583;28;20462;-73
2021/06/20 05:56:07;;;;;;;17.38;6.00;;;;;;;26.24;39.27;100854.09;5053400;28;20070;-73
2021/06/20 05:58:33;;;;;;;11.48;5.32;;;;;;;26.18;39.02;100862.16;5035227;28;20155;-73
2021/06/20 06:00:58;;;;;;;9.52;5.18;;;;;;;26.19;39.03;100857.34;5053397;28;20021;-73
2021/06/20 06:03:24;;;;;;;11.60;5.70;;;;;;;26.20;38.89;100853.34;5053351;28;20086;-73
2021/06/20 06:05:49;;;;;;;16.20;5.80;;;;;;;26.33;38.77;100845.97;5053351;28;20025;-73
2021/06/20 06:08:15;;;;;;;15.20;5.28;;;;;;;26.23;38.84;100844.91;5035379;28;20055;-73
2021/06/20 06:10:41;;;;;;;19.17;6.82;;;;;;;26.37;38.65;100855.13;5053211;28;20589;-75
2021/06/20 06:13:07;;;;;;;12.73;5.50;;;;;;;26.20;39.02;100850.53;5053152;28;20075;-75
2021/06/20 06:15:32;;;;;;;11.55;4.95;;;;;;;26.20;38.88;100858.94;5052985;28;20078;-73
2021/06/20 06:17:59;;;;;;;10.65;5.05;;;;;;;26.22;38.54;100862.09;5035208;28;20025;-74
2021/06/20 06:20:25;;;;;;;16.85;5.97;;;;;;;26.35;38.13;100860.34;5052760;28;20051;-74
2021/06/20 06:22:51;;;;;;;13.07;5.78;;;;;;;26.56;37.74;100864.94;5053001;28;20476;-73
2021/06/20 06:25:17;;;;;;;9.93;5.13;;;;;;;26.50;38.27;100859.00;5052965;28;20036;-73
2021/06/20 06:27:44;;;;;;;16.77;5.47;;;;;;;26.40;38.06;100864.75;5052981;28;20441;-74
2021/06/20 06:30:11;;;;;;;12.75;5.65;;;;;;;26.64;37.46;100865.66;5034997;28;20372;-74
2021/06/20 06:32:38;;;;;;;16.00;6.40;;;;;;;26.33;37.98;100873.19;5052837;28;20472;-73
2021/06/20 06:35:04;;;;;;;14.98;6.40;;;;;;;26.48;37.80;100871.84;5034930;28;20395;-73
2021/06/20 06:37:30;;;;;;;15.32;7.57;;;;;;;26.49;37.92;100874.22;5052948;28;20119;-74
2021/06/20 06:39:55;;;;;;;13.38;6.43;;;;;;;26.41;37.80;100886.75;5052506;28;20428;-74
2021/06/20 06:42:25;;;;;;;12.57;7.22;;;;;;;26.64;37.37;100882.47;5034810;28;20029;-73
2021/06/20 06:44:55;;;;;;;10.80;6.07;;;;;;;26.73;37.20;100882.75;5052986;28;20032;-73
2021/06/20 06:47:21;;;;;;;;;;;;;;;26.34;37.69;100892.38;5053697;28;20035;-73
2021/06/20 06:49:48;;;;;;;12.88;6.60;;;;;;;26.55;37.58;100886.56;5052631;28;19913;-73
2021/06/20 06:52:13;;;;;;;11.23;6.57;;;;;;;26.61;37.27;100895.31;5034973;28;20035;-73
2021/06/20 06:54:39;;;;;;;17.48;7.22;;;;;;;26.54;37.35;100889.78;5052577;28;20037;-74
2021/06/20 06:57:05;;;;;;;11.73;7.20;;;;;;;26.54;37.27;100896.19;5052493;28;20036;-74
2021/06/20 06:59:31;;;;;;;12.02;6.57;;;;;;;26.81;36.71;100899.03;5052540;28;20040;-73
2021/06/20 07:01:57;;;;;;;9.85;6.35;;;;;;;26.62;36.93;100899.69;5052446;28;20506;-73
2021/06/20 07:04:23;;;;;;;10.77;6.85;;;;;;;26.51;37.03;100907.44;5052436;28;20090;-73
2021/06/20 07:06:49;;;;;;;8.75;5.78;;;;;;;26.64;36.58;100905.66;5052479;28;20029;-73
2021/06/20 07:09:15;;;;;;;11.57;6.22;;;;;;;26.62;36.76;100907.31;5034540;28;20620;-74
2021/06/20 07:11:41;;;;;;;15.00;6.78;;;;;;;26.76;36.25;100907.94;5034471;28;20029;-73
2021/06/20 07:14:06;;;;;;;12.55;6.25;;;;;;;26.72;36.28;100907.16;5052389;28;20029;-73
2021/06/20 07:16:32;;;;;;;12.65;7.93;;;;;;;26.94;36.04;100907.69;5052283;28;20087;-73
2021/06/20 07:18:58;;;;;;;9.70;6.10;;;;;;;26.95;35.83;100909.28;5052299;28;20146;-73
2021/06/20 07:21:23;;;;;;;9.85;6.38;;;;;;;27.16;35.75;100911.03;5041696;28;20131;-73
2021/06/20 07:23:49;;;;;;;9.75;6.55;;;;;;;27.46;35.39;100915.78;5051058;28;20433;-73
2021/06/20 07:26:15;;;;;;;17.52;6.25;;;;;;;27.38;35.36;100915.09;5052266;28;20032;-73
2021/06/20 07:28:41;;;;;;;13.85;7.25;;;;;;;27.51;35.41;100918.13;5052203;28;20111;-74
2021/06/20 07:31:07;;;;;;;19.27;7.38;;;;;;;27.95;34.50;100921.81;5052210;28;20025;-73
2021/06/20 07:33:32;;;;;;;10.70;7.35;;;;;;;27.88;34.65;100921.94;5052275;28;20029;-74
2021/06/20 07:35:58;;;;;;;13.60;7.78;;;;;;;27.86;34.69;100925.16;5050942;28;20029;-73
2021/06/20 07:38:24;;;;;;;11.45;7.88;;;;;;;28.18;33.94;100932.22;5052147;28;20029;-73
2021/06/20 07:40:50;;;;;;;12.40;7.38;;;;;;;28.40;33.55;100929.84;5052138;28;20017;-73
2021/06/20 07:43:16;;;;;;;11.63;8.25;;;;;;;28.50;33.63;100930.88;5052091;28;20513;-73
2021/06/20 07:45:42;;;;;;;11.27;7.18;;;;;;;28.47;33.52;100932.50;5052151;28;20099;-73
2021/06/20 07:48:08;;;;;;;14.48;7.55;;;;;;;28.35;33.63;100930.38;5052172;28;20104;-73
2021/06/20 07:50:35;;;;;;;12.27;6.97;;;;;;;28.79;32.93;100936.69;5051434;28;20029;-73
2021/06/20 07:53:01;;;;;;;13.15;7.00;;;;;;;28.61;33.01;100931.44;5055880;28;20493;-73
2021/06/20 07:55:26;;;;;;;12.05;8.15;;;;;;;28.83;32.57;100926.19;5055659;28;20033;-73
2021/06/20 07:57:52;;;;;;;13.23;7.95;;;;;;;28.71;32.52;100927.63;5055747;28;20056;-73
2021/06/20 08:00:19;;;;;;;11.55;8.23;;;;;;;29.17;32.21;100921.03;5055669;28;20478;-74
2021/06/20 08:02:46;;;;;;;17.73;9.88;;;;;;;29.35;31.98;100922.63;5055551;28;20040;-74
2021/06/20 08:05:12;;;;;;;15.10;9.65;;;;;;;29.56;31.78;100924.97;5055627;28;20031;-73
2021/06/20 08:07:38;;;;;;;12.23;10.27;;;;;;;29.51;31.81;100923.47;5054276;28;20025;-73
2021/06/20 08:10:05;;;;;;;18.02;11.68;;;;;;;29.35;31.61;100923.44;5054250;28;20028;-74
2021/06/20 08:12:31;;;;;;;17.75;14.18;;;;;;;29.47;31.68;100924.75;5055386;28;20433;-74
2021/06/20 08:14:56;;;;;;;16.33;13.55;;;;;;;29.60;31.37;100930.50;5055466;28;20025;-73
2021/06/20 08:17:23;;;;;;;17.80;13.75;;;;;;;29.68;31.19;100927.06;5055373;28;20332;-74
2021/06/20 08:19:48;;;;;;;15.38;12.70;;;;;;;29.65;31.06;100925.16;5055343;28;20036;-76
2021/06/20 08:22:17;;;;;;;16.75;12.30;;;;;;;29.67;30.92;100931.13;5055128;28;20053;-74
2021/06/20 08:24:43;;;;;;;17.70;12.30;;;;;;;29.93;30.65;100931.31;5037381;28;20059;-74
2021/06/20 08:27:08;;;;;;;17.17;12.25;;;;;;;29.78;31.15;100923.22;5055406;28;20059;-74
2021/06/20 08:29:34;;;;;;;15.80;10.65;;;;;;;29.83;30.82;100919.84;5055183;28;20514;-73
2021/06/20 08:32:00;;;;;;;18.30;11.65;;;;;;;30.10;30.59;100919.59;5055086;28;20032;-73
2021/06/20 08:34:29;;;;;;;14.32;9.63;;;;;;;30.23;30.39;100919.66;5055047;28;20070;-74
2021/06/20 08:36:55;;;;;;;11.95;9.25;;;;;;;30.12;30.41;100933.22;5054882;28;20114;-73
2021/06/20 08:39:21;;;;;;;12.20;9.82;;;;;;;30.12;30.76;100924.78;5037318;28;20048;-75
2021/06/20 08:41:46;;;;;;;15.00;9.82;;;;;;;30.17;30.28;100920.63;5036980;28;20028;-74
2021/06/20 08:44:17;;;;;;;13.02;7.53;;;;;;;30.09;30.27;100925.69;5054835;28;20056;-74
2021/06/20 08:46:43;;;;;;;10.20;7.28;;;;;;;30.14;30.02;100924.31;5054786;28;20028;-74
2021/06/20 08:49:09;;;;;;;13.00;6.85;;;;;;;30.01;30.28;100919.41;5054761;28;20100;-73
2021/06/20 08:51:35;;;;;;;10.35;8.23;;;;;;;30.07;30.10;100923.25;5054659;28;20108;-73
2021/06/20 08:54:01;;;;;;;14.43;9.20;;;;;;;29.89;30.36;100922.16;5036656;28;20495;-73
2021/06/20 08:56:28;;;;;;;13.65;8.27;;;;;;;29.87;30.46;100919.78;5054526;28;20029;-73
2021/06/20 08:58:53;;;;;;;12.90;8.27;;;;;;;29.85;30.41;100927.84;5054500;28;20531;-74
2021/06/20 09:01:20;;;;;;;12.15;8.65;;;;;;;29.97;29.96;100929.19;5054495;28;20108;-74
2021/06/20 09:03:46;;;;;;;11.68;8.32;;;;;;;29.93;30.29;100936.94;5036657;28;20025;-74
2021/06/20 09:06:19;;;;;;;13.40;8.23;;;;;;;29.93;30.31;100932.09;5054425;28;20032;-74
2021/06/20 09:08:52;;;;;;;12.43;7.95;;;;;;;29.85;29.92;100933.47;5054442;28;20025;-74
2021/06/20 09:11:37;;;;;;;13.68;7.40;;;;;;;29.83;30.04;100933.94;5054371;28;20021;-73
2021/06/20 09:14:13;;;;;;;12.63;7.22;;;;;;;30.06;29.68;100932.94;5054391;28;20048;-73
2021/06/20 09:17:04;;;;;;;9.93;6.45;;;;;;;30.09;29.58;100943.38;5054254;28;20368;-74
2021/06/20 09:19:32;;;;;;;9.85;6.38;;;;;;;30.01;29.87;100943.97;5049538;28;20029;-73
2021/06/20 09:22:04;;;;;;;9.63;6.07;;;;;;;29.77;29.99;100946.16;5054056;28;20049;-73
2021/06/20 09:24:29;;;;;;;11.10;6.13;;;;;;;29.59;30.13;100943.78;5054227;28;20036;-74
2021/06/20 09:26:59;;;;;;;13.68;6.82;;;;;;;29.52;30.20;100943.97;5053672;28;20399;-73
2021/06/20 09:29:32;;;;;;;14.32;6.95;;;;;;;29.58;30.18;100944.25;5054015;28;20075;-74
2021/06/20 09:32:00;;;;;;;15.93;6.22;;;;;;;29.74;29.98;100949.88;5036066;28;20116;-74
2021/06/20 09:34:26;;;;;;;14.65;6.85;;;;;;;29.53;30.85;100951.19;5036052;28;20166;-73
2021/06/20 09:37:03;;;;;;;10.20;5.22;;;;;;;29.58;30.37;100950.66;5035931;28;20506;-73
2021/06/20 09:39:30;;;;;;;11.00;5.70;;;;;;;29.66;30.03;100948.47;5053840;28;20104;-74
2021/06/20 09:42:02;;;;;;;12.10;6.10;;;;;;;29.49;30.45;100950.44;5035909;28;20028;-73
2021/06/20 09:44:50;;;;;;;10.05;5.78;;;;;;;29.64;30.79;100957.34;5053812;28;20029;-74
2021/06/20 09:47:18;;;;;;;8.82;5.28;;;;;;;29.82;30.45;100959.72;5053742;28;20056;-73
2021/06/20 09:49:46;;;;;;;12.35;6.88;;;;;;;29.88;30.15;100955.16;5053746;28;20021;-74
2021/06/20 09:52:12;;;;;;;10.88;6.13;;;;;;;29.77;30.19;100949.78;5053653;28;20095;-74
2021/06/20 09:54:44;;;;;;;16.02;6.00;;;;;;;29.67;30.16;100948.03;5053517;28;20112;-73
2021/06/20 09:57:18;;;;;;;10.55;5.22;;;;;;;29.45;30.28;100956.16;5053554;28;20429;-73
2021/06/20 10:00:00;;;;;;;9.02;4.78;;;;;;;29.86;29.91;100962.47;5053675;28;20017;-74
2021/06/20 10:02:36;;;;;;;10.15;5.82;;;;;;;29.87;30.04;100964.06;5053415;28;20028;-74
2021/06/20 10:05:02;;;;;;;13.10;5.65;;;;;;;29.88;29.75;100957.97;5053393;28;20032;-75
2021/06/20 10:07:29;;;;;;;10.18;4.15;;;;;;;29.77;29.67;100960.25;5053249;28;20032;-73
2021/06/20 10:09:59;;;;;;;7.57;4.13;;;;;;;29.84;29.39;100958.03;5053138;28;20028;-74
2021/06/20 10:12:24;;;;;;;;;;;;;;;30.04;29.34;100966.41;5035872;28;20029;-74
2021/06/20 10:14:52;;;;;;;10.40;4.85;;;;;;;29.96;29.21;100969.84;5052616;28;20424;-75
2021/06/20 10:17:34;;;;;;;8.85;4.68;;;;;;;29.81;29.34;100978.66;5053002;28;20391;-74
2021/06/20 10:20:05;;;;;;;10.77;4.78;;;;;;;30.17;28.89;100977.78;5053133;28;20109;-74
2021/06/20 10:22:49;;;;;;;9.60;4.60;;;;;;;30.11;28.91;100980.34;5052920;28;20056;-75
2021/06/20 10:25:27;;;;;;;9.90;4.43;;;;;;;30.14;28.64;100977.88;5052979;28;20078;-74
2021/06/20 10:28:22;;;;;;;11.35;4.72;;;;;;;29.74;29.08;100981.63;5053006;28;20024;-74
2021/06/20 10:30:48;;;;;;;7.20;4.55;;;;;;;29.95;28.87;100988.78;5050169;28;20511;-74
2021/06/20 10:33:18;;;;;;;8.60;4.13;;;;;;;29.88;28.88;100986.13;5052777;28;20025;-73
2021/06/20 10:35:57;;;;;;;11.70;5.18;;;;;;;30.19;28.77;100988.63;5052755;28;20021;-73
2021/06/20 10:38:33;;;;;;;7.45;4.80;;;;;;;30.13;28.22;100987.56;5052860;28;20399;-74
2021/06/20 10:40:59;;;;;;;13.55;5.95;;;;;;;30.21;28.47;100984.09;5052719;28;20033;-76
2021/06/20 10:43:25;;;;;;;8.80;4.22;;;;;;;29.72;28.80;101001.00;5052704;28;20047;-73
2021/06/20 10:45:50;;;;;;;15.68;4.55;;;;;;;29.84;28.72;101002.31;5052935;28;20033;-74
2021/06/20 10:48:22;;;;;;;13.57;4.75;;;;;;;29.81;28.15;100998.38;5052700;28;20036;-74
2021/06/20 10:50:56;;;;;;;10.02;4.57;;;;;;;29.93;28.23;100996.09;5034710;28;20020;-74
2021/06/20 10:53:23;;;;;;;13.70;4.72;;;;;;;29.82;28.55;100993.53;5052606;28;20491;-75
2021/06/20 10:55:51;;;;;;;7.03;4.32;;;;;;;30.16;28.08;100997.97;5052423;28;20082;-74
2021/06/20 10:58:16;;;;;;;12.65;4.65;;;;;;;30.19;28.10;100991.44;5052753;28;20025;-74
2021/06/20 11:00:42;;;;;;;9.65;3.90;;;;;;;30.23;28.07;100997.75;5034723;28;20494;-75
2021/06/20 11:03:27;;;;;;;8.88;4.10;;;;;;;30.08;28.53;100998.16;5052452;28;20021;-74
2021/06/20 11:06:10;;;;;;;246.20;31.83;;;;;;;30.13;27.89;101004.47;5034641;28;20415;-74
2021/06/20 11:08:55;;;;;;;9.05;4.60;;;;;;;30.30;27.94;101014.47;5052476;28;20021;-74
2021/06/20 11:11:32;;;;;;;17.23;5.35;;;;;;;30.26;27.71;101017.41;5052416;28;20589;-74
2021/06/20 11:13:57;;;;;;;13.45;4.72;;;;;;;30.13;27.76;101021.38;5052455;28;20086;-74
2021/06/20 11:16:30;;;;;;;11.05;5.30;;;;;;;30.24;27.61;101017.06;5034473;28;20532;-74